createdAt,value
2022-10-23T00:00:53.429Z,71.59
2022-10-23T00:03:40.809Z,71.45
2022-10-23T00:06:10.953Z,71.52
2022-10-23T00:08:40.808Z,71.54
2022-10-23T00:11:19.676Z,71.61
2022-10-23T00:13:55.506Z,71.59
2022-10-23T00:16:28.941Z,71.62
2022-10-23T00:18:57.827Z,71.56
2022-10-23T00:21:27.432Z,71.60
2022-10-23T00:24:28.520Z,71.68
2022-10-23T00:27:03.712Z,71.67
2022-10-23T00:29:35.623Z,71.69
2022-10-23T00:32:03.780Z,71.71
2022-10-23T00:34:32.695Z,71.67
2022-10-23T00:37:02.649Z,71.69
2022-10-23T00:39:31.408Z,71.66
2022-10-23T00:42:00.381Z,71.56
2022-10-23T00:44:28.168Z,71.52
2022-10-23T00:47:02.718Z,71.43
2022-10-23T00:49:32.484Z,71.38
2022-10-23T00:52:07.444Z,71.31
2022-10-23T00:54:44.674Z,71.21
2022-10-23T00:57:17.796Z,71.30
2022-10-23T00:59:47.777Z,71.45
2022-10-23T01:02:16.666Z,71.48
2022-10-23T01:04:47.544Z,71.73
2022-10-23T01:07:26.257Z,72.03
2022-10-23T01:10:15.138Z,72.36
2022-10-23T01:12:49.624Z,72.28
2022-10-23T01:16:04.685Z,72.24
2022-10-23T01:18:45.773Z,72.36
2022-10-23T01:21:22.668Z,72.18
2022-10-23T01:24:24.982Z,72.08
2022-10-23T01:27:15.073Z,72.04
2022-10-23T01:29:55.768Z,71.86
2022-10-23T01:32:37.280Z,71.81
2022-10-23T01:35:14.456Z,71.67
2022-10-23T01:37:45.279Z,71.26
2022-10-23T01:40:27.460Z,71.03
2022-10-23T01:42:58.369Z,70.83
2022-10-23T01:45:39.235Z,70.88
2022-10-23T01:48:10.884Z,70.92
2022-10-23T01:50:42.777Z,70.96
2022-10-23T01:53:10.836Z,70.74
2022-10-23T01:55:45.035Z,70.81
2022-10-23T01:58:21.180Z,70.79
2022-10-23T02:00:55.712Z,70.83
2022-10-23T02:03:33.470Z,71.01
2022-10-23T02:06:05.794Z,70.96
2022-10-23T02:08:40.558Z,70.76
2022-10-23T02:11:13.135Z,70.72
2022-10-23T02:13:44.102Z,70.79
2022-10-23T02:16:42.896Z,70.71
2022-10-23T02:19:30.492Z,70.93
2022-10-23T02:22:23.175Z,71.04
2022-10-23T02:25:04.973Z,71.13
2022-10-23T02:27:45.325Z,71.16
2022-10-23T02:30:18.232Z,70.98
2022-10-23T02:32:54.151Z,70.94
2022-10-23T02:35:26.410Z,71.10
2022-10-23T02:38:03.600Z,71.41
2022-10-23T02:40:44.147Z,71.54
2022-10-23T02:43:24.323Z,71.77
2022-10-23T02:46:10.479Z,71.85
2022-10-23T02:48:54.930Z,71.82
2022-10-23T02:51:45.294Z,71.73
2022-10-23T02:54:26.059Z,71.61
2022-10-23T02:57:05.001Z,71.48
2022-10-23T02:59:45.461Z,71.38
2022-10-23T03:02:26.315Z,71.46
2022-10-23T03:05:03.286Z,71.23
2022-10-23T03:07:34.288Z,71.15
2022-10-23T03:10:07.270Z,71.23
2022-10-23T03:12:39.997Z,71.15
2022-10-23T03:15:10.986Z,71.20
2022-10-23T03:17:42.124Z,71.19
2022-10-23T03:20:11.977Z,71.14
2022-10-23T03:22:41.590Z,71.09
2022-10-23T03:25:11.874Z,71.18
2022-10-23T03:27:44.506Z,71.26
2022-10-23T03:30:13.944Z,71.32
2022-10-23T03:32:43.273Z,71.16
2022-10-23T03:35:12.400Z,71.10
2022-10-23T03:37:42.686Z,71.07
2022-10-23T03:40:11.344Z,71.26
2022-10-23T03:42:40.298Z,71.37
2022-10-23T03:45:15.927Z,71.46
2022-10-23T03:47:52.101Z,71.49
2022-10-23T03:50:21.137Z,71.40
2022-10-23T03:52:50.924Z,71.37
2022-10-23T03:55:18.843Z,71.33
2022-10-23T03:57:46.743Z,71.37
2022-10-23T04:00:17.005Z,71.40
2022-10-23T04:02:45.626Z,71.44
2022-10-23T04:05:15.163Z,71.51
2022-10-23T04:07:54.837Z,71.52
2022-10-23T04:10:26.562Z,71.50
2022-10-23T04:12:54.639Z,71.33
2022-10-23T04:15:26.681Z,71.13
2022-10-23T04:17:56.782Z,70.97
2022-10-23T04:20:30.637Z,70.97
2022-10-23T04:23:05.798Z,70.87
2022-10-23T04:25:36.264Z,71.06
2022-10-23T04:28:04.849Z,71.16
2022-10-23T04:30:41.985Z,71.38
2022-10-23T04:33:16.437Z,71.49
2022-10-23T04:35:45.513Z,71.64
2022-10-23T04:38:17.255Z,71.75
2022-10-23T04:40:45.253Z,71.80
2022-10-23T04:43:16.710Z,71.82
2022-10-23T04:45:45.839Z,71.84
2022-10-23T04:48:13.774Z,71.98
2022-10-23T04:51:14.994Z,72.01
2022-10-23T04:54:05.701Z,71.99
2022-10-23T04:57:06.782Z,71.86
2022-10-23T04:59:53.469Z,71.63
2022-10-23T05:02:23.639Z,71.53
2022-10-23T05:04:52.096Z,71.34
2022-10-23T05:07:36.302Z,71.21
2022-10-23T05:10:17.284Z,71.16
2022-10-23T05:13:08.112Z,71.14
2022-10-23T05:15:38.526Z,71.04
2022-10-23T05:18:17.498Z,70.87
2022-10-23T05:20:50.790Z,70.67
2022-10-23T05:23:22.094Z,70.59
2022-10-23T05:26:05.098Z,70.36
2022-10-23T05:28:37.882Z,70.24
2022-10-23T05:31:06.774Z,69.92
2022-10-23T05:33:41.131Z,69.79
2022-10-23T05:36:13.513Z,69.71
2022-10-23T05:38:46.200Z,69.69
2022-10-23T05:41:19.889Z,69.69
2022-10-23T05:43:48.750Z,69.75
2022-10-23T05:46:43.304Z,69.80
2022-10-23T05:49:32.425Z,69.91
2022-10-23T05:52:37.664Z,69.95
2022-10-23T05:55:07.050Z,70.06
2022-10-23T05:57:49.431Z,70.16
2022-10-23T06:00:24.615Z,70.34
2022-10-23T06:03:04.270Z,70.34
2022-10-23T06:05:36.850Z,70.46
2022-10-23T06:08:20.323Z,70.40
2022-10-23T06:10:55.659Z,70.47
2022-10-23T06:13:24.669Z,70.54
2022-10-23T06:15:54.693Z,70.57
2022-10-23T06:18:32.702Z,70.81
2022-10-23T06:21:07.504Z,71.02
2022-10-23T06:23:39.806Z,71.18
2022-10-23T06:26:14.331Z,71.26
2022-10-23T06:29:16.468Z,71.46
2022-10-23T06:31:45.936Z,71.78
2022-10-23T06:34:15.846Z,71.94
2022-10-23T06:36:45.000Z,72.02
2022-10-23T06:39:32.018Z,72.03
2022-10-23T06:42:26.844Z,71.95
2022-10-23T06:45:01.132Z,71.83
2022-10-23T06:47:51.495Z,71.76
2022-10-23T06:51:07.462Z,71.77
2022-10-23T06:53:42.304Z,72.00
2022-10-23T06:56:29.329Z,72.01
2022-10-23T06:58:59.743Z,71.96
2022-10-23T07:01:30.914Z,71.93
2022-10-23T07:04:00.186Z,71.84
2022-10-23T07:06:28.530Z,71.72
2022-10-23T07:08:56.813Z,71.54
2022-10-23T07:11:49.267Z,71.39
2022-10-23T07:14:19.591Z,71.32
2022-10-23T07:16:52.771Z,71.04
2022-10-23T07:19:22.406Z,70.68
2022-10-23T07:21:59.272Z,70.52
2022-10-23T07:24:45.854Z,70.35
2022-10-23T07:27:41.426Z,70.30
2022-10-23T07:30:31.076Z,70.25
2022-10-23T07:33:02.120Z,70.15
2022-10-23T07:35:38.522Z,70.00
2022-10-23T07:38:13.969Z,69.88
2022-10-23T07:40:47.829Z,70.18
2022-10-23T07:43:20.892Z,70.12
2022-10-23T07:45:58.846Z,69.85
2022-10-23T07:48:40.022Z,69.45
2022-10-23T07:51:13.034Z,68.83
2022-10-23T07:53:47.042Z,68.59
2022-10-23T07:56:40.740Z,68.37
2022-10-23T07:59:24.712Z,67.68
2022-10-23T08:01:58.833Z,67.28
2022-10-23T08:04:33.621Z,66.79
2022-10-23T08:07:17.834Z,66.97
2022-10-23T08:09:52.939Z,66.61
2022-10-23T08:12:21.889Z,66.68
2022-10-23T08:14:51.148Z,66.84
2022-10-23T08:17:21.035Z,66.53
2022-10-23T08:20:08.664Z,66.09
2022-10-23T08:22:43.149Z,66.30
2022-10-23T08:25:11.130Z,66.52
2022-10-23T08:27:39.309Z,66.42
2022-10-23T08:30:08.114Z,66.56
2022-10-23T08:32:44.706Z,66.68
2022-10-23T08:35:16.754Z,66.72
2022-10-23T08:37:46.146Z,66.40
2022-10-23T08:40:23.932Z,66.48
2022-10-23T08:43:51.272Z,66.63
2022-10-23T08:46:32.797Z,66.50
2022-10-23T08:49:44.807Z,66.23
2022-10-23T08:52:37.557Z,66.20
2022-10-23T08:55:22.477Z,65.57
2022-10-23T08:57:56.945Z,65.66
2022-10-23T09:00:28.746Z,65.81
2022-10-23T09:02:57.452Z,66.01
2022-10-23T09:05:35.212Z,66.08
2022-10-23T09:08:22.041Z,66.39
2022-10-23T09:11:12.436Z,66.48
2022-10-23T09:13:49.884Z,66.72
2022-10-23T09:16:42.691Z,66.66
2022-10-23T09:19:28.203Z,66.99
2022-10-23T09:22:01.788Z,67.14
2022-10-23T09:24:34.078Z,66.78
2022-10-23T09:27:17.070Z,66.25
2022-10-23T09:29:50.504Z,66.23
2022-10-23T09:32:37.134Z,66.52
2022-10-23T09:35:06.861Z,66.70
2022-10-23T09:37:47.890Z,66.75
2022-10-23T09:40:24.894Z,66.66
2022-10-23T09:43:05.036Z,66.49
2022-10-23T09:45:39.234Z,66.44
2022-10-23T09:48:14.604Z,66.22
2022-10-23T09:50:52.987Z,66.24
2022-10-23T09:53:28.141Z,66.45
2022-10-23T09:56:27.312Z,66.57
2022-10-23T09:59:06.146Z,66.79
2022-10-23T10:01:38.923Z,66.79
2022-10-23T10:04:47.223Z,66.38
2022-10-23T10:07:26.908Z,65.46
2022-10-23T10:09:55.919Z,64.44
2022-10-23T10:12:53.336Z,63.91
2022-10-23T10:15:47.998Z,62.16
2022-10-23T10:19:04.632Z,59.86
2022-10-23T10:21:47.145Z,58.58
2022-10-23T10:24:32.322Z,56.76
2022-10-23T10:27:38.447Z,54.74
2022-10-23T10:30:23.022Z,53.73
2022-10-23T10:33:16.770Z,52.66
2022-10-23T10:36:01.447Z,51.30
2022-10-23T10:38:45.218Z,49.63
2022-10-23T10:41:32.949Z,47.27
2022-10-23T10:44:04.762Z,46.14
2022-10-23T10:46:56.296Z,44.38
2022-10-23T10:49:40.518Z,42.80
2022-10-23T10:52:49.382Z,41.47
2022-10-23T10:55:28.745Z,39.48
2022-10-23T10:58:23.698Z,38.81
2022-10-23T11:01:03.025Z,39.43
2022-10-23T11:03:42.592Z,39.78
2022-10-23T11:06:18.978Z,39.02
2022-10-23T11:08:57.916Z,39.37
2022-10-23T11:11:49.010Z,38.89
2022-10-23T11:14:19.754Z,38.56
2022-10-23T11:16:59.027Z,37.75
2022-10-23T11:19:42.901Z,36.30
2022-10-23T11:22:43.999Z,36.55
2022-10-23T11:25:50.447Z,36.92
2022-10-23T11:28:34.311Z,36.94
2022-10-23T11:31:32.534Z,37.29
2022-10-23T11:34:49.173Z,38.16
2022-10-23T11:37:21.952Z,38.27
2022-10-23T11:40:12.742Z,38.50
2022-10-23T11:42:51.088Z,39.56
2022-10-23T11:46:24.107Z,40.57
2022-10-23T11:48:47.578Z,42.19
2022-10-23T11:51:37.649Z,43.22
2022-10-23T11:54:35.884Z,43.83
2022-10-23T11:57:36.249Z,43.98
2022-10-23T12:00:44.712Z,44.60
2022-10-23T12:13:55.146Z,46.48
2022-10-23T12:16:58.328Z,45.38
2022-10-23T12:20:25.727Z,42.62
2022-10-23T12:24:00.812Z,39.51
2022-10-23T12:27:25.697Z,35.87
2022-10-23T12:33:58.679Z,34.85
2022-10-23T12:37:42.645Z,34.23
2022-10-23T12:40:50.541Z,33.75
2022-10-23T12:47:11.256Z,33.16
2022-10-23T12:49:56.031Z,33.42
2022-10-23T12:55:40.314Z,34.06
2022-10-23T12:59:33.405Z,34.37
2022-10-23T13:02:44.866Z,34.27
2022-10-23T13:06:22.508Z,34.57
2022-10-23T13:09:24.973Z,35.60
2022-10-23T13:13:19.121Z,36.23
2022-10-23T13:20:53.249Z,37.34
2022-10-23T13:23:58.153Z,38.05
2022-10-23T13:26:58.588Z,38.44
2022-10-23T13:30:44.069Z,38.11
2022-10-23T13:34:10.454Z,37.63
2022-10-23T13:40:33.419Z,36.65
2022-10-23T13:43:30.789Z,37.08
2022-10-23T13:46:30.698Z,38.18
2022-10-23T13:49:41.089Z,39.29
2022-10-23T13:58:48.035Z,38.51
2022-10-23T14:01:29.065Z,38.03
2022-10-23T14:03:57.894Z,38.04
2022-10-23T14:06:26.167Z,37.99
2022-10-23T14:09:08.865Z,38.42
2022-10-23T14:12:28.961Z,39.39
2022-10-23T14:16:30.122Z,40.26
2022-10-23T14:22:17.450Z,41.60
2022-10-23T14:25:39.321Z,41.18
2022-10-23T14:28:41.710Z,41.20
2022-10-23T14:31:18.596Z,41.26
2022-10-23T14:33:58.733Z,41.45
2022-10-23T14:36:43.233Z,42.03
2022-10-23T14:43:04.317Z,43.36
2022-10-23T14:52:48.213Z,46.59
2022-10-23T14:59:34.749Z,48.47
2022-10-23T15:08:45.303Z,50.52
2022-10-23T15:11:14.296Z,50.96
2022-10-23T15:13:50.780Z,51.15
2022-10-23T15:16:44.885Z,51.11
2022-10-23T15:19:24.946Z,51.49
2022-10-23T15:22:37.326Z,51.70
2022-10-23T15:25:06.801Z,51.73
2022-10-23T15:27:37.230Z,51.90
2022-10-23T15:30:43.543Z,51.99
2022-10-23T15:33:16.454Z,52.29
2022-10-23T15:35:48.688Z,52.44
2022-10-23T15:38:17.819Z,52.70
2022-10-23T15:40:46.734Z,52.75
2022-10-23T15:43:17.210Z,52.89
2022-10-23T15:45:47.685Z,53.08
2022-10-23T15:48:16.732Z,53.29
2022-10-23T15:50:58.219Z,53.50
2022-10-23T15:53:27.399Z,53.66
2022-10-23T15:55:58.850Z,53.70
2022-10-23T15:58:27.265Z,53.82
2022-10-23T16:01:10.497Z,54.01
2022-10-23T16:03:51.230Z,54.11
2022-10-23T16:06:46.566Z,54.21
2022-10-23T16:09:17.542Z,54.25
2022-10-23T16:13:03.207Z,54.61
2022-10-23T16:19:39.334Z,55.04
2022-10-23T16:23:05.706Z,55.13
2022-10-23T16:30:30.564Z,55.88
2022-10-23T16:33:45.601Z,56.27
2022-10-23T16:40:34.397Z,56.77
2022-10-23T16:43:34.895Z,56.98
2022-10-23T16:46:17.164Z,57.32
2022-10-23T16:48:45.180Z,57.72
2022-10-23T16:51:17.388Z,57.81
2022-10-23T16:53:50.232Z,58.01
2022-10-23T16:56:25.368Z,57.92
2022-10-23T17:01:31.321Z,58.12
2022-10-23T17:03:59.483Z,58.26
2022-10-23T17:06:31.317Z,58.49
2022-10-23T17:09:10.081Z,58.51
2022-10-23T17:11:44.390Z,58.62
2022-10-23T17:14:16.668Z,58.73
2022-10-23T17:16:46.901Z,58.67
2022-10-23T17:19:33.083Z,58.69
2022-10-23T17:22:10.828Z,58.74
2022-10-23T17:24:41.183Z,58.88
2022-10-23T17:27:10.022Z,59.40
2022-10-23T17:29:49.184Z,59.92
2022-10-23T17:32:18.211Z,59.99
2022-10-23T17:34:47.175Z,60.47
2022-10-23T17:37:17.604Z,60.91
2022-10-23T17:39:46.700Z,61.02
2022-10-23T17:42:20.212Z,61.14
2022-10-23T17:44:49.005Z,61.05
2022-10-23T17:47:23.096Z,61.13
2022-10-23T17:49:52.020Z,61.45
2022-10-23T17:55:04.770Z,61.75
2022-10-23T17:57:41.969Z,61.56
2022-10-23T18:00:10.599Z,61.56
2022-10-23T18:02:45.075Z,61.56
2022-10-23T18:05:15.148Z,61.52
2022-10-23T18:07:43.683Z,61.52
2022-10-23T18:10:19.976Z,61.68
2022-10-23T18:12:49.828Z,61.77
2022-10-23T18:15:20.561Z,61.75
2022-10-23T18:17:49.668Z,61.75
2022-10-23T18:20:17.561Z,61.70
2022-10-23T18:22:52.684Z,61.70
2022-10-23T18:25:26.790Z,61.57
2022-10-23T18:28:00.387Z,61.44
2022-10-23T18:33:16.240Z,61.30
2022-10-23T18:35:45.209Z,61.31
2022-10-23T18:38:22.945Z,61.12
2022-10-23T18:40:57.221Z,61.13
2022-10-23T18:43:42.511Z,61.05
2022-10-23T18:46:13.677Z,61.15
2022-10-23T18:48:44.231Z,61.22
2022-10-23T18:51:22.402Z,61.22
2022-10-23T18:53:51.991Z,61.20
2022-10-23T18:56:24.441Z,61.19
2022-10-23T18:58:55.812Z,61.12
2022-10-23T19:01:30.100Z,61.06
2022-10-23T19:03:59.961Z,61.45
2022-10-23T19:06:29.071Z,61.66
2022-10-23T19:08:59.087Z,62.09
2022-10-23T19:11:37.573Z,62.76
2022-10-23T19:14:10.200Z,63.28
2022-10-23T19:16:43.934Z,63.59
2022-10-23T19:19:22.029Z,64.28
2022-10-23T19:21:52.149Z,64.82
2022-10-23T19:24:23.324Z,65.21
2022-10-23T19:26:52.159Z,65.53
2022-10-23T19:29:23.451Z,65.43
2022-10-23T19:31:54.047Z,65.67
2022-10-23T19:34:25.208Z,65.48
2022-10-23T19:36:59.343Z,65.46
2022-10-23T19:39:30.419Z,65.27
2022-10-23T19:41:58.825Z,65.26
2022-10-23T19:44:30.334Z,65.05
2022-10-23T19:47:07.877Z,64.74
2022-10-23T19:49:37.317Z,64.58
2022-10-23T19:52:05.272Z,64.47
2022-10-23T19:54:34.562Z,64.18
2022-10-23T19:57:10.136Z,64.03
2022-10-23T20:00:16.872Z,63.88
2022-10-23T20:02:49.078Z,63.79
2022-10-23T20:05:20.844Z,63.66
2022-10-23T20:07:55.599Z,63.51
2022-10-23T20:10:26.181Z,63.37
2022-10-23T20:12:57.059Z,63.40
2022-10-23T20:15:44.956Z,63.41
2022-10-23T20:18:20.045Z,63.41
2022-10-23T20:20:53.809Z,63.47
2022-10-23T20:23:26.999Z,63.33
2022-10-23T20:25:55.160Z,63.25
2022-10-23T20:28:23.135Z,63.20
2022-10-23T20:31:10.928Z,63.15
2022-10-23T20:33:46.025Z,63.08
2022-10-23T20:36:26.055Z,63.23
2022-10-23T20:38:59.889Z,63.21
2022-10-23T20:41:32.507Z,63.14
2022-10-23T20:44:09.755Z,63.21
2022-10-23T20:46:53.352Z,63.14
2022-10-23T20:49:39.014Z,63.31
2022-10-23T20:52:11.056Z,63.51
2022-10-23T20:54:38.997Z,64.07
2022-10-23T20:57:07.536Z,64.11
2022-10-23T20:59:39.997Z,64.29
2022-10-23T21:02:09.679Z,64.48
2022-10-23T21:04:38.890Z,64.40
2022-10-23T21:07:19.217Z,64.28
2022-10-23T21:09:49.333Z,64.21
2022-10-23T21:12:19.543Z,64.13
2022-10-23T21:14:48.666Z,64.57
2022-10-23T21:17:24.116Z,64.94
2022-10-23T21:19:53.362Z,65.24
2022-10-23T21:22:23.310Z,65.40
2022-10-23T21:24:57.080Z,65.53
2022-10-23T21:27:26.592Z,65.27
2022-10-23T21:29:55.435Z,65.21
2022-10-23T21:32:24.645Z,65.37
2022-10-23T21:34:55.190Z,65.39
2022-10-23T21:37:25.583Z,65.26
2022-10-23T21:39:54.475Z,65.11
2022-10-23T21:42:25.737Z,65.06
2022-10-23T21:44:54.951Z,64.99
2022-10-23T21:47:29.124Z,65.16
2022-10-23T21:49:58.023Z,65.41
2022-10-23T21:52:26.891Z,65.62
2022-10-23T21:54:55.851Z,65.84
2022-10-23T21:57:24.757Z,66.11
2022-10-23T21:59:54.774Z,66.26
2022-10-23T22:02:23.954Z,66.61
2022-10-23T22:04:51.989Z,66.81
2022-10-23T22:07:22.142Z,66.88
2022-10-23T22:09:51.135Z,67.11
2022-10-23T22:12:22.910Z,67.04
2022-10-23T22:14:50.974Z,67.38
2022-10-23T22:17:19.923Z,67.72
2022-10-23T22:19:48.002Z,67.76
2022-10-23T22:22:17.002Z,67.83
2022-10-23T22:24:47.185Z,67.74
2022-10-23T22:27:21.797Z,67.70
2022-10-23T22:29:51.892Z,67.73
2022-10-23T22:34:53.035Z,67.85
2022-10-23T22:37:21.811Z,68.00
2022-10-23T22:39:52.406Z,68.04
2022-10-23T22:42:21.379Z,68.17
2022-10-23T22:44:53.882Z,68.13
2022-10-23T22:47:22.799Z,68.27
2022-10-23T22:49:52.848Z,68.33
2022-10-23T22:52:27.008Z,68.32
2022-10-23T22:54:56.055Z,68.15
2022-10-23T23:00:01.361Z,67.77
2022-10-23T23:02:32.798Z,67.78
2022-10-23T23:05:07.106Z,67.69
2022-10-23T23:07:35.951Z,67.66
2022-10-23T23:10:05.312Z,67.80
2022-10-23T23:12:37.115Z,68.00
2022-10-23T23:15:11.189Z,68.05
2022-10-23T23:17:45.253Z,67.92
2022-10-23T23:20:15.688Z,67.97
2022-10-23T23:22:43.868Z,68.01
2022-10-23T23:25:12.857Z,67.89
2022-10-23T23:27:41.700Z,67.95
2022-10-23T23:30:11.693Z,67.86
2022-10-23T23:32:41.798Z,67.87
2022-10-23T23:35:10.959Z,67.72
2022-10-23T23:37:40.948Z,67.47
2022-10-23T23:40:11.257Z,67.59
2022-10-23T23:42:40.458Z,67.65
2022-10-23T23:45:14.737Z,67.73
2022-10-23T23:47:46.463Z,67.71
2022-10-23T23:50:16.064Z,67.73
2022-10-23T23:52:45.986Z,67.83
2022-10-23T23:55:16.100Z,67.90
2022-10-23T23:57:48.859Z,67.81
